Terminal Aerodrome Forecast
Issued by NWS Jackson, MS

Current Version | Previous Version | Text Only | Print | Product List | Glossary On
Versions: 1 2 3 4 5 6 7 8 9 10 11 12 13
000
FTUS44 KJAN 212300
TAFMEI
TAF
KMEI 212320Z 2200/2224 VRB03KT P6SM VCTS SCT060CB BKN090
     FM220200 00000KT 6SM BR SKC
     FM221300 31004KT P6SM SCT050=

USA.gov is the U.S. government's official web portal to all federal, state and local government web resources and services.